sensor_id;sensor_type;location;lat;lon;timestamp;pressure;altitude;pressure_sealevel;temperature;humidity
49377;BME280;35253;34.688;33.040;2023-01-26T00:01:19;101427.19;;;13.80;100.00
49377;BME280;35253;34.688;33.040;2023-01-26T00:03:45;101426.13;;;13.83;100.00
49377;BME280;35253;34.688;33.040;2023-01-26T00:06:11;101428.72;;;13.84;100.00
49377;BME280;35253;34.688;33.040;2023-01-26T00:08:38;101433.88;;;13.73;100.00
49377;BME280;35253;34.688;33.040;2023-01-26T00:11:04;101426.41;;;13.78;100.00
49377;BME280;35253;34.688;33.040;2023-01-26T00:13:30;101435.31;;;13.79;100.00
49377;BME280;35253;34.688;33.040;2023-01-26T00:15:55;101428.41;;;13.75;100.00
49377;BME280;35253;34.688;33.040;2023-01-26T00:18:21;101431.88;;;13.77;100.00
49377;BME280;35253;34.688;33.040;2023-01-26T00:20:46;101428.88;;;13.67;100.00
49377;BME280;35253;34.688;33.040;2023-01-26T00:23:12;101431.19;;;13.73;100.00
49377;BME280;35253;34.688;33.040;2023-01-26T00:25:38;101439.31;;;13.72;100.00
49377;BME280;35253;34.688;33.040;2023-01-26T00:28:06;101435.00;;;13.69;100.00
49377;BME280;35253;34.688;33.040;2023-01-26T00:30:32;101427.66;;;13.73;100.00
49377;BME280;35253;34.688;33.040;2023-01-26T00:32:57;101433.09;;;13.71;100.00
49377;BME280;35253;34.688;33.040;2023-01-26T00:35:23;101428.63;;;13.56;100.00
49377;BME280;35253;34.688;33.040;2023-01-26T00:37:48;101429.81;;;13.66;100.00
49377;BME280;35253;34.688;33.040;2023-01-26T00:40:14;101428.28;;;13.62;100.00
49377;BME280;35253;34.688;33.040;2023-01-26T00:42:39;101432.50;;;13.66;100.00
49377;BME280;35253;34.688;33.040;2023-01-26T00:45:06;101436.25;;;13.64;100.00
49377;BME280;35253;34.688;33.040;2023-01-26T00:47:32;101432.09;;;13.58;100.00
49377;BME280;35253;34.688;33.040;2023-01-26T00:49:57;101432.91;;;13.60;100.00
49377;BME280;35253;34.688;33.040;2023-01-26T00:52:23;101436.31;;;13.62;100.00
49377;BME280;35253;34.688;33.040;2023-01-26T00:54:48;101439.19;;;13.59;100.00
49377;BME280;35253;34.688;33.040;2023-01-26T00:57:14;101444.16;;;13.65;100.00
49377;BME280;35253;34.688;33.040;2023-01-26T00:59:39;101436.78;;;13.54;100.00
49377;BME280;35253;34.688;33.040;2023-01-26T01:02:05;101442.63;;;13.61;100.00
49377;BME280;35253;34.688;33.040;2023-01-26T01:04:30;101447.31;;;13.58;100.00
49377;BME280;35253;34.688;33.040;2023-01-26T01:06:56;101447.00;;;13.48;100.00
49377;BME280;35253;34.688;33.040;2023-01-26T01:09:21;101445.63;;;13.41;100.00
49377;BME280;35253;34.688;33.040;2023-01-26T01:11:47;101448.63;;;13.21;100.00
49377;BME280;35253;34.688;33.040;2023-01-26T01:14:13;101447.25;;;13.43;100.00
49377;BME280;35253;34.688;33.040;2023-01-26T01:16:39;101435.34;;;13.49;100.00
49377;BME280;35253;34.688;33.040;2023-01-26T01:19:04;101448.13;;;13.44;100.00
49377;BME280;35253;34.688;33.040;2023-01-26T01:21:30;101442.16;;;13.39;100.00
49377;BME280;35253;34.688;33.040;2023-01-26T01:23:56;101452.53;;;13.45;100.00
49377;BME280;35253;34.688;33.040;2023-01-26T01:26:22;101443.44;;;13.47;100.00
49377;BME280;35253;34.688;33.040;2023-01-26T01:28:47;101444.91;;;13.53;100.00
49377;BME280;35253;34.688;33.040;2023-01-26T01:31:14;101442.22;;;13.53;100.00
49377;BME280;35253;34.688;33.040;2023-01-26T01:33:50;101450.25;;;13.53;100.00
49377;BME280;35253;34.688;33.040;2023-01-26T01:36:16;101444.03;;;13.52;100.00
49377;BME280;35253;34.688;33.040;2023-01-26T01:38:43;101441.63;;;13.48;100.00
49377;BME280;35253;34.688;33.040;2023-01-26T01:41:10;101437.19;;;13.33;100.00
49377;BME280;35253;34.688;33.040;2023-01-26T01:43:35;101439.59;;;13.37;100.00
49377;BME280;35253;34.688;33.040;2023-01-26T01:46:12;101444.09;;;13.37;100.00
49377;BME280;35253;34.688;33.040;2023-01-26T01:48:43;101430.78;;;13.35;100.00
49377;BME280;35253;34.688;33.040;2023-01-26T01:51:12;101433.56;;;13.34;100.00
49377;BME280;35253;34.688;33.040;2023-01-26T01:53:41;101429.03;;;13.34;100.00
49377;BME280;35253;34.688;33.040;2023-01-26T01:56:14;101429.16;;;13.17;100.00
49377;BME280;35253;34.688;33.040;2023-01-26T01:58:43;101424.69;;;13.18;100.00
49377;BME280;35253;34.688;33.040;2023-01-26T02:01:09;101426.63;;;13.30;100.00
49377;BME280;35253;34.688;33.040;2023-01-26T02:03:35;101433.91;;;13.28;100.00
49377;BME280;35253;34.688;33.040;2023-01-26T02:08:34;101436.47;;;13.45;100.00
49377;BME280;35253;34.688;33.040;2023-01-26T02:11:10;101432.44;;;13.38;100.00
49377;BME280;35253;34.688;33.040;2023-01-26T02:13:38;101439.53;;;13.23;100.00
49377;BME280;35253;34.688;33.040;2023-01-26T02:16:03;101446.34;;;13.29;100.00
49377;BME280;35253;34.688;33.040;2023-01-26T02:18:29;101447.38;;;13.26;100.00
49377;BME280;35253;34.688;33.040;2023-01-26T02:20:58;101446.69;;;13.23;100.00
49377;BME280;35253;34.688;33.040;2023-01-26T02:28:23;101450.75;;;13.30;100.00
49377;BME280;35253;34.688;33.040;2023-01-26T02:30:49;101464.13;;;13.30;100.00
49377;BME280;35253;34.688;33.040;2023-01-26T02:33:27;101462.44;;;13.29;100.00
49377;BME280;35253;34.688;33.040;2023-01-26T02:35:52;101464.25;;;13.28;100.00
49377;BME280;35253;34.688;33.040;2023-01-26T02:38:18;101463.09;;;13.32;100.00
49377;BME280;35253;34.688;33.040;2023-01-26T02:40:50;101459.16;;;13.24;100.00
49377;BME280;35253;34.688;33.040;2023-01-26T02:43:18;101461.19;;;13.34;100.00
49377;BME280;35253;34.688;33.040;2023-01-26T02:45:43;101460.69;;;13.28;100.00
49377;BME280;35253;34.688;33.040;2023-01-26T02:48:09;101460.28;;;13.20;100.00
49377;BME280;35253;34.688;33.040;2023-01-26T02:50:35;101462.44;;;13.29;100.00
49377;BME280;35253;34.688;33.040;2023-01-26T02:53:00;101461.72;;;13.25;100.00
49377;BME280;35253;34.688;33.040;2023-01-26T02:55:26;101464.91;;;13.32;100.00
49377;BME280;35253;34.688;33.040;2023-01-26T02:57:59;101462.06;;;13.35;100.00
49377;BME280;35253;34.688;33.040;2023-01-26T03:00:25;101459.75;;;13.29;100.00
49377;BME280;35253;34.688;33.040;2023-01-26T03:02:52;101463.59;;;13.39;100.00
49377;BME280;35253;34.688;33.040;2023-01-26T03:05:19;101460.28;;;13.20;100.00
49377;BME280;35253;34.688;33.040;2023-01-26T03:07:45;101466.91;;;13.13;100.00
49377;BME280;35253;34.688;33.040;2023-01-26T03:10:10;101474.69;;;13.17;100.00
49377;BME280;35253;34.688;33.040;2023-01-26T03:12:36;101461.03;;;13.22;100.00
49377;BME280;35253;34.688;33.040;2023-01-26T03:15:02;101470.72;;;13.24;100.00
49377;BME280;35253;34.688;33.040;2023-01-26T03:18:02;101470.03;;;13.21;100.00
49377;BME280;35253;34.688;33.040;2023-01-26T03:20:51;101474.00;;;13.14;100.00
49377;BME280;35253;34.688;33.040;2023-01-26T03:23:35;101475.56;;;13.18;100.00
49377;BME280;35253;34.688;33.040;2023-01-26T03:26:19;101478.59;;;13.12;100.00
49377;BME280;35253;34.688;33.040;2023-01-26T03:29:03;101475.97;;;13.10;100.00
49377;BME280;35253;34.688;33.040;2023-01-26T03:31:29;101472.94;;;13.00;100.00
49377;BME280;35253;34.688;33.040;2023-01-26T03:33:54;101475.28;;;13.06;100.00
49377;BME280;35253;34.688;33.040;2023-01-26T03:36:20;101476.69;;;13.14;100.00
49377;BME280;35253;34.688;33.040;2023-01-26T03:38:45;101473.81;;;13.17;100.00
49377;BME280;35253;34.688;33.040;2023-01-26T03:41:11;101473.56;;;13.05;100.00
49377;BME280;35253;34.688;33.040;2023-01-26T03:43:55;101474.78;;;13.16;100.00
49377;BME280;35253;34.688;33.040;2023-01-26T03:46:39;101476.03;;;13.08;100.00
49377;BME280;35253;34.688;33.040;2023-01-26T03:49:23;101476.59;;;13.15;100.00
49377;BME280;35253;34.688;33.040;2023-01-26T03:52:07;101476.50;;;13.17;100.00
49377;BME280;35253;34.688;33.040;2023-01-26T03:54:51;101481.59;;;13.21;100.00
49377;BME280;35253;34.688;33.040;2023-01-26T03:57:34;101474.34;;;13.23;100.00
49377;BME280;35253;34.688;33.040;2023-01-26T04:00:00;101470.19;;;13.18;100.00
49377;BME280;35253;34.688;33.040;2023-01-26T04:02:25;101478.50;;;13.13;100.00
49377;BME280;35253;34.688;33.040;2023-01-26T04:05:09;101480.91;;;13.18;100.00
49377;BME280;35253;34.688;33.040;2023-01-26T04:07:53;101481.59;;;13.21;100.00
49377;BME280;35253;34.688;33.040;2023-01-26T04:10:37;101482.03;;;13.14;100.00
49377;BME280;35253;34.688;33.040;2023-01-26T04:13:03;101488.66;;;13.06;100.00
49377;BME280;35253;34.688;33.040;2023-01-26T04:15:47;101485.41;;;13.17;100.00
49377;BME280;35253;34.688;33.040;2023-01-26T04:18:31;101483.84;;;13.13;100.00
49377;BME280;35253;34.688;33.040;2023-01-26T04:21:15;101483.78;;;13.15;100.00
49377;BME280;35253;34.688;33.040;2023-01-26T04:24:12;101483.22;;;12.92;100.00
49377;BME280;35253;34.688;33.040;2023-01-26T04:26:40;101483.16;;;12.94;100.00
49377;BME280;35253;34.688;33.040;2023-01-26T04:29:07;101479.00;;;12.88;100.00
49377;BME280;35253;34.688;33.040;2023-01-26T04:31:33;101482.09;;;12.96;100.00
49377;BME280;35253;34.688;33.040;2023-01-26T04:34:02;101479.19;;;12.85;100.00
49377;BME280;35253;34.688;33.040;2023-01-26T04:36:27;101473.97;;;12.82;100.00
49377;BME280;35253;34.688;33.040;2023-01-26T04:38:53;101477.06;;;12.90;100.00
49377;BME280;35253;34.688;33.040;2023-01-26T04:41:19;101471.56;;;12.93;100.00
49377;BME280;35253;34.688;33.040;2023-01-26T04:43:44;101477.63;;;12.97;100.00
49377;BME280;35253;34.688;33.040;2023-01-26T04:46:10;101480.09;;;13.00;100.00
49377;BME280;35253;34.688;33.040;2023-01-26T04:48:44;101476.50;;;12.85;100.00
49377;BME280;35253;34.688;33.040;2023-01-26T04:51:13;101479.75;;;12.90;100.00
49377;BME280;35253;34.688;33.040;2023-01-26T04:53:39;101477.69;;;12.95;100.00
49377;BME280;35253;34.688;33.040;2023-01-26T04:56:04;101484.06;;;13.08;100.00
49377;BME280;35253;34.688;33.040;2023-01-26T04:58:31;101490.34;;;13.25;100.00
49377;BME280;35253;34.688;33.040;2023-01-26T05:00:57;101488.50;;;13.25;100.00
49377;BME280;35253;34.688;33.040;2023-01-26T05:03:22;101489.53;;;13.23;100.00
49377;BME280;35253;34.688;33.040;2023-01-26T05:05:49;101489.03;;;13.32;100.00
49377;BME280;35253;34.688;33.040;2023-01-26T05:08:15;101488.19;;;13.16;100.00
49377;BME280;35253;34.688;33.040;2023-01-26T05:10:40;101500.69;;;13.31;100.00
49377;BME280;35253;34.688;33.040;2023-01-26T05:13:07;101512.53;;;13.27;100.00
49377;BME280;35253;34.688;33.040;2023-01-26T05:15:33;101510.13;;;13.38;100.00
49377;BME280;35253;34.688;33.040;2023-01-26T05:17:59;101516.75;;;13.31;100.00
49377;BME280;35253;34.688;33.040;2023-01-26T05:20:24;101515.28;;;13.25;100.00
49377;BME280;35253;34.688;33.040;2023-01-26T05:22:50;101524.03;;;13.29;100.00
49377;BME280;35253;34.688;33.040;2023-01-26T05:25:15;101516.84;;;13.14;100.00
49377;BME280;35253;34.688;33.040;2023-01-26T05:27:41;101513.66;;;13.23;100.00
49377;BME280;35253;34.688;33.040;2023-01-26T05:30:07;101525.72;;;13.30;100.00
49377;BME280;35253;34.688;33.040;2023-01-26T05:32:32;101529.53;;;13.41;100.00
49377;BME280;35253;34.688;33.040;2023-01-26T05:34:58;101533.97;;;13.42;100.00
49377;BME280;35253;34.688;33.040;2023-01-26T05:37:26;101530.50;;;13.40;100.00
49377;BME280;35253;34.688;33.040;2023-01-26T05:39:52;101533.63;;;13.33;100.00
49377;BME280;35253;34.688;33.040;2023-01-26T05:42:18;101535.16;;;13.37;100.00
49377;BME280;35253;34.688;33.040;2023-01-26T05:44:43;101544.75;;;13.41;100.00
49377;BME280;35253;34.688;33.040;2023-01-26T05:47:09;101542.16;;;13.55;100.00
49377;BME280;35253;34.688;33.040;2023-01-26T05:49:34;101551.38;;;13.65;100.00
49377;BME280;35253;34.688;33.040;2023-01-26T05:52:06;101539.28;;;13.58;100.00
49377;BME280;35253;34.688;33.040;2023-01-26T05:54:32;101545.13;;;13.65;100.00
49377;BME280;35253;34.688;33.040;2023-01-26T05:56:57;101545.47;;;13.74;100.00
49377;BME280;35253;34.688;33.040;2023-01-26T05:59:23;101552.22;;;13.81;100.00
49377;BME280;35253;34.688;33.040;2023-01-26T06:01:48;101551.75;;;13.89;100.00
49377;BME280;35253;34.688;33.040;2023-01-26T06:04:14;101550.63;;;13.93;100.00
49377;BME280;35253;34.688;33.040;2023-01-26T06:06:39;101554.75;;;13.98;100.00
49377;BME280;35253;34.688;33.040;2023-01-26T06:09:04;101553.63;;;14.03;100.00
49377;BME280;35253;34.688;33.040;2023-01-26T06:11:30;101562.16;;;14.09;100.00
49377;BME280;35253;34.688;33.040;2023-01-26T06:13:56;101556.25;;;14.18;100.00
49377;BME280;35253;34.688;33.040;2023-01-26T06:16:21;101558.47;;;14.26;100.00
49377;BME280;35253;34.688;33.040;2023-01-26T06:18:47;101561.41;;;14.37;100.00
49377;BME280;35253;34.688;33.040;2023-01-26T06:21:14;101562.94;;;14.41;100.00
49377;BME280;35253;34.688;33.040;2023-01-26T06:23:39;101565.63;;;14.41;100.00
49377;BME280;35253;34.688;33.040;2023-01-26T06:26:04;101563.31;;;14.49;100.00
49377;BME280;35253;34.688;33.040;2023-01-26T06:28:31;101569.06;;;14.57;100.00
49377;BME280;35253;34.688;33.040;2023-01-26T06:31:03;101575.41;;;14.70;100.00
49377;BME280;35253;34.688;33.040;2023-01-26T06:33:33;101572.88;;;14.83;100.00
49377;BME280;35253;34.688;33.040;2023-01-26T06:36:05;101578.13;;;14.84;100.00
49377;BME280;35253;34.688;33.040;2023-01-26T06:38:31;101584.84;;;14.92;100.00
49377;BME280;35253;34.688;33.040;2023-01-26T06:41:00;101570.25;;;14.96;100.00
49377;BME280;35253;34.688;33.040;2023-01-26T06:43:30;101586.53;;;15.07;100.00
49377;BME280;35253;34.688;33.040;2023-01-26T06:45:56;101585.19;;;15.14;100.00
49377;BME280;35253;34.688;33.040;2023-01-26T06:48:22;101588.44;;;15.19;100.00
49377;BME280;35253;34.688;33.040;2023-01-26T06:50:47;101587.19;;;15.24;100.00
49377;BME280;35253;34.688;33.040;2023-01-26T06:53:34;101586.13;;;15.27;100.00
49377;BME280;35253;34.688;33.040;2023-01-26T06:56:01;101589.88;;;15.39;100.00
49377;BME280;35253;34.688;33.040;2023-01-26T06:58:27;101592.06;;;15.46;100.00
49377;BME280;35253;34.688;33.040;2023-01-26T07:00:52;101590.91;;;15.50;100.00
49377;BME280;35253;34.688;33.040;2023-01-26T07:03:19;101593.22;;;15.56;100.00
49377;BME280;35253;34.688;33.040;2023-01-26T07:05:44;101588.19;;;15.64;100.00
49377;BME280;35253;34.688;33.040;2023-01-26T07:08:10;101598.06;;;15.78;100.00
49377;BME280;35253;34.688;33.040;2023-01-26T07:10:35;101596.78;;;15.84;100.00
49377;BME280;35253;34.688;33.040;2023-01-26T07:13:02;101601.34;;;15.96;100.00
49377;BME280;35253;34.688;33.040;2023-01-26T07:15:27;101599.22;;;16.01;100.00
49377;BME280;35253;34.688;33.040;2023-01-26T07:17:53;101594.91;;;16.11;100.00
49377;BME280;35253;34.688;33.040;2023-01-26T07:20:18;101599.88;;;16.17;100.00
49377;BME280;35253;34.688;33.040;2023-01-26T07:22:44;101602.81;;;16.27;100.00
49377;BME280;35253;34.688;33.040;2023-01-26T07:25:09;101603.78;;;16.26;100.00
49377;BME280;35253;34.688;33.040;2023-01-26T07:27:35;101606.56;;;16.24;100.00
49377;BME280;35253;34.688;33.040;2023-01-26T07:30:00;101609.19;;;16.38;100.00
49377;BME280;35253;34.688;33.040;2023-01-26T07:32:27;101615.13;;;16.43;100.00
49377;BME280;35253;34.688;33.040;2023-01-26T07:34:52;101617.81;;;16.43;100.00
49377;BME280;35253;34.688;33.040;2023-01-26T07:37:17;101613.72;;;16.50;100.00
49377;BME280;35253;34.688;33.040;2023-01-26T07:39:43;101609.69;;;16.57;100.00
49377;BME280;35253;34.688;33.040;2023-01-26T07:42:09;101608.59;;;16.60;100.00
49377;BME280;35253;34.688;33.040;2023-01-26T07:44:35;101599.34;;;16.64;100.00
49377;BME280;35253;34.688;33.040;2023-01-26T07:47:00;101605.38;;;16.67;100.00
49377;BME280;35253;34.688;33.040;2023-01-26T07:49:26;101598.47;;;16.76;100.00
49377;BME280;35253;34.688;33.040;2023-01-26T07:51:51;101602.38;;;16.85;100.00
49377;BME280;35253;34.688;33.040;2023-01-26T07:54:18;101602.56;;;16.82;100.00
49377;BME280;35253;34.688;33.040;2023-01-26T07:56:45;101595.81;;;16.89;100.00
49377;BME280;35253;34.688;33.040;2023-01-26T07:59:11;101587.50;;;16.92;100.00
49377;BME280;35253;34.688;33.040;2023-01-26T08:01:37;101581.88;;;16.95;100.00
49377;BME280;35253;34.688;33.040;2023-01-26T08:04:03;101577.78;;;17.02;100.00
49377;BME280;35253;34.688;33.040;2023-01-26T08:06:28;101578.31;;;17.07;100.00
49377;BME280;35253;34.688;33.040;2023-01-26T08:08:54;101575.84;;;17.04;100.00
49377;BME280;35253;34.688;33.040;2023-01-26T08:11:20;101577.88;;;17.13;100.00
49377;BME280;35253;34.688;33.040;2023-01-26T08:13:47;101577.34;;;17.08;100.00
49377;BME280;35253;34.688;33.040;2023-01-26T08:16:13;101569.56;;;17.16;100.00
49377;BME280;35253;34.688;33.040;2023-01-26T08:18:41;101578.06;;;17.23;100.00
49377;BME280;35253;34.688;33.040;2023-01-26T08:21:08;101578.72;;;17.26;100.00
49377;BME280;35253;34.688;33.040;2023-01-26T08:23:33;101572.06;;;17.19;100.00
49377;BME280;35253;34.688;33.040;2023-01-26T08:26:02;101571.72;;;17.24;100.00
49377;BME280;35253;34.688;33.040;2023-01-26T08:28:28;101575.78;;;17.29;100.00
49377;BME280;35253;34.688;33.040;2023-01-26T08:30:54;101584.19;;;17.37;100.00
49377;BME280;35253;34.688;33.040;2023-01-26T08:33:20;101567.78;;;17.40;100.00
49377;BME280;35253;34.688;33.040;2023-01-26T08:35:45;101569.72;;;17.38;100.00
49377;BME280;35253;34.688;33.040;2023-01-26T08:38:11;101564.78;;;17.32;100.00
49377;BME280;35253;34.688;33.040;2023-01-26T08:40:36;101563.31;;;17.28;100.00
49377;BME280;35253;34.688;33.040;2023-01-26T08:43:02;101570.19;;;17.32;100.00
49377;BME280;35253;34.688;33.040;2023-01-26T08:45:28;101572.59;;;17.24;100.00
49377;BME280;35253;34.688;33.040;2023-01-26T08:47:53;101577.28;;;17.33;100.00
49377;BME280;35253;34.688;33.040;2023-01-26T08:50:19;101566.47;;;17.46;100.00
49377;BME280;35253;34.688;33.040;2023-01-26T08:52:44;101567.75;;;17.53;100.00
49377;BME280;35253;34.688;33.040;2023-01-26T08:55:10;101569.88;;;17.61;100.00
49377;BME280;35253;34.688;33.040;2023-01-26T08:57:36;101560.25;;;17.69;100.00
49377;BME280;35253;34.688;33.040;2023-01-26T09:00:02;101557.81;;;17.53;100.00
49377;BME280;35253;34.688;33.040;2023-01-26T09:02:27;101555.97;;;17.67;100.00
49377;BME280;35253;34.688;33.040;2023-01-26T09:05:08;101555.00;;;17.68;100.00
49377;BME280;35253;34.688;33.040;2023-01-26T09:07:34;101553.03;;;17.70;100.00
49377;BME280;35253;34.688;33.040;2023-01-26T09:09:59;101547.19;;;17.76;100.00
49377;BME280;35253;34.688;33.040;2023-01-26T09:12:24;101547.91;;;17.78;100.00
49377;BME280;35253;34.688;33.040;2023-01-26T09:14:50;101533.56;;;17.77;100.00
49377;BME280;35253;34.688;33.040;2023-01-26T09:17:15;101534.16;;;17.70;100.00
49377;BME280;35253;34.688;33.040;2023-01-26T09:19:41;101526.81;;;17.72;100.00
49377;BME280;35253;34.688;33.040;2023-01-26T09:22:06;101524.16;;;17.83;100.00
49377;BME280;35253;34.688;33.040;2023-01-26T09:24:32;101525.97;;;17.82;100.00
49377;BME280;35253;34.688;33.040;2023-01-26T09:26:57;101524.16;;;17.83;100.00
49377;BME280;35253;34.688;33.040;2023-01-26T09:29:23;101519.72;;;17.82;100.00
49377;BME280;35253;34.688;33.040;2023-01-26T09:31:48;101507.97;;;17.83;100.00
49377;BME280;35253;34.688;33.040;2023-01-26T09:34:13;101507.22;;;17.81;100.00
49377;BME280;35253;34.688;33.040;2023-01-26T09:36:39;101501.63;;;17.95;100.00
49377;BME280;35253;34.688;33.040;2023-01-26T09:39:04;101495.50;;;17.93;100.00
49377;BME280;35253;34.688;33.040;2023-01-26T09:41:41;101502.03;;;18.01;100.00
49377;BME280;35253;34.688;33.040;2023-01-26T09:44:11;101492.59;;;18.07;100.00
49377;BME280;35253;34.688;33.040;2023-01-26T09:49:35;101480.22;;;18.16;100.00
49377;BME280;35253;34.688;33.040;2023-01-26T09:54:31;101471.53;;;18.23;100.00
49377;BME280;35253;34.688;33.040;2023-01-26T09:57:22;101464.28;;;18.24;100.00
49377;BME280;35253;34.688;33.040;2023-01-26T09:59:56;101466.38;;;18.20;100.00
49377;BME280;35253;34.688;33.040;2023-01-26T10:05:35;101461.94;;;18.30;100.00
49377;BME280;35253;34.688;33.040;2023-01-26T10:08:02;101462.69;;;18.43;100.00
49377;BME280;35253;34.688;33.040;2023-01-26T10:10:31;101461.25;;;18.51;100.00
49377;BME280;35253;34.688;33.040;2023-01-26T10:12:59;101464.91;;;18.50;100.00
49377;BME280;35253;34.688;33.040;2023-01-26T10:17:53;101458.06;;;18.57;100.00
49377;BME280;35253;34.688;33.040;2023-01-26T10:20:38;101453.03;;;18.63;100.00
49377;BME280;35253;34.688;33.040;2023-01-26T10:23:10;101460.19;;;18.64;100.00
49377;BME280;35253;34.688;33.040;2023-01-26T10:25:37;101454.88;;;18.63;100.00
49377;BME280;35253;34.688;33.040;2023-01-26T10:28:25;101456.97;;;18.70;100.00
49377;BME280;35253;34.688;33.040;2023-01-26T10:30:48;101449.59;;;18.83;100.00
49377;BME280;35253;34.688;33.040;2023-01-26T10:33:31;101446.38;;;18.78;100.00
49377;BME280;35253;34.688;33.040;2023-01-26T10:35:58;101445.78;;;18.86;100.00
49377;BME280;35253;34.688;33.040;2023-01-26T10:40:58;101447.06;;;19.14;100.00
49377;BME280;35253;34.688;33.040;2023-01-26T10:43:24;101444.72;;;19.20;100.00
49377;BME280;35253;34.688;33.040;2023-01-26T10:45:50;101439.41;;;19.30;100.00
49377;BME280;35253;34.688;33.040;2023-01-26T10:50:42;101435.84;;;19.29;100.00
49377;BME280;35253;34.688;33.040;2023-01-26T10:53:27;101435.00;;;19.29;100.00
49377;BME280;35253;34.688;33.040;2023-01-26T10:58:51;101421.88;;;19.56;100.00
49377;BME280;35253;34.688;33.040;2023-01-26T11:01:18;101421.69;;;19.69;100.00
49377;BME280;35253;34.688;33.040;2023-01-26T11:03:57;101422.19;;;19.84;100.00
49377;BME280;35253;34.688;33.040;2023-01-26T11:06:26;101423.69;;;19.88;100.00
49377;BME280;35253;34.688;33.040;2023-01-26T11:08:52;101417.97;;;20.11;100.00
49377;BME280;35253;34.688;33.040;2023-01-26T11:11:26;101415.63;;;20.27;100.00
49377;BME280;35253;34.688;33.040;2023-01-26T11:16:38;101399.38;;;20.58;100.00
49377;BME280;35253;34.688;33.040;2023-01-26T11:19:06;101402.44;;;20.74;100.00
49377;BME280;35253;34.688;33.040;2023-01-26T11:21:39;101405.47;;;20.90;100.00
49377;BME280;35253;34.688;33.040;2023-01-26T11:29:28;101404.72;;;21.57;100.00
49377;BME280;35253;34.688;33.040;2023-01-26T11:37:07;101413.13;;;22.39;100.00
49377;BME280;35253;34.688;33.040;2023-01-26T11:42:16;101411.00;;;22.70;100.00
49377;BME280;35253;34.688;33.040;2023-01-26T11:45:05;101407.25;;;22.80;100.00
49377;BME280;35253;34.688;33.040;2023-01-26T11:50:18;101403.16;;;22.67;100.00
49377;BME280;35253;34.688;33.040;2023-01-26T11:55:33;101406.44;;;23.15;100.00
49377;BME280;35253;34.688;33.040;2023-01-26T12:00:32;101407.16;;;23.35;100.00
49377;BME280;35253;34.688;33.040;2023-01-26T12:03:03;101402.19;;;23.48;100.00
49377;BME280;35253;34.688;33.040;2023-01-26T12:05:30;101401.88;;;23.69;100.00
49377;BME280;35253;34.688;33.040;2023-01-26T12:08:12;101406.22;;;23.79;100.00
49377;BME280;35253;34.688;33.040;2023-01-26T12:10:44;101408.47;;;24.10;100.00
49377;BME280;35253;34.688;33.040;2023-01-26T12:15:42;101416.91;;;24.50;100.00
49377;BME280;35253;34.688;33.040;2023-01-26T12:18:23;101411.91;;;24.12;98.96
49377;BME280;35253;34.688;33.040;2023-01-26T12:20:57;101411.22;;;24.69;99.12
49377;BME280;35253;34.688;33.040;2023-01-26T12:23:37;101411.88;;;24.63;97.05
49377;BME280;35253;34.688;33.040;2023-01-26T12:26:10;101417.69;;;24.68;93.05
49377;BME280;35253;34.688;33.040;2023-01-26T12:31:27;101412.78;;;24.38;94.18
49377;BME280;35253;34.688;33.040;2023-01-26T12:33:56;101413.00;;;24.19;97.76
49377;BME280;35253;34.688;33.040;2023-01-26T12:46:46;101418.88;;;23.18;98.62
49377;BME280;35253;34.688;33.040;2023-01-26T12:49:16;101418.91;;;22.90;100.00
49377;BME280;35253;34.688;33.040;2023-01-26T12:51:47;101409.19;;;23.68;98.53
49377;BME280;35253;34.688;33.040;2023-01-26T12:54:33;101415.94;;;23.82;97.20
49377;BME280;35253;34.688;33.040;2023-01-26T12:57:01;101407.34;;;23.51;97.37
49377;BME280;35253;34.688;33.040;2023-01-26T12:59:30;101418.97;;;21.78;100.00
49377;BME280;35253;34.688;33.040;2023-01-26T13:01:56;101418.56;;;21.92;100.00
49377;BME280;35253;34.688;33.040;2023-01-26T13:04:22;101424.47;;;22.62;100.00
49377;BME280;35253;34.688;33.040;2023-01-26T13:07:01;101422.66;;;22.89;100.00
49377;BME280;35253;34.688;33.040;2023-01-26T13:09:27;101423.84;;;23.05;100.00
49377;BME280;35253;34.688;33.040;2023-01-26T13:11:57;101420.72;;;23.00;100.00
49377;BME280;35253;34.688;33.040;2023-01-26T13:14:24;101420.00;;;23.43;100.00
49377;BME280;35253;34.688;33.040;2023-01-26T13:16:50;101419.78;;;23.54;100.00
49377;BME280;35253;34.688;33.040;2023-01-26T13:21:59;101419.81;;;23.26;99.40
49377;BME280;35253;34.688;33.040;2023-01-26T13:26:54;101419.13;;;23.42;96.39
49377;BME280;35253;34.688;33.040;2023-01-26T13:31:52;101415.50;;;23.51;96.14
49377;BME280;35253;34.688;33.040;2023-01-26T13:34:23;101415.13;;;23.46;96.94
49377;BME280;35253;34.688;33.040;2023-01-26T13:36:50;101419.09;;;23.52;95.29
49377;BME280;35253;34.688;33.040;2023-01-26T13:39:26;101420.69;;;23.62;95.90
49377;BME280;35253;34.688;33.040;2023-01-26T13:41:53;101409.34;;;23.49;95.12
49377;BME280;35253;34.688;33.040;2023-01-26T13:44:31;101411.50;;;23.28;96.45
49377;BME280;35253;34.688;33.040;2023-01-26T13:47:01;101412.44;;;23.19;98.15
49377;BME280;35253;34.688;33.040;2023-01-26T13:49:38;101422.44;;;23.01;99.36
49377;BME280;35253;34.688;33.040;2023-01-26T13:52:17;101419.97;;;23.07;98.18